createdAt,value
2023-03-05T00:00:14.091Z,62387.00
2023-03-05T00:02:32.325Z,62392.54
2023-03-05T00:03:34.497Z,62367.61
2023-03-05T00:04:37.212Z,62374.24
2023-03-05T00:05:39.178Z,62378.98
2023-03-05T00:06:41.748Z,62380.48
2023-03-05T00:07:43.961Z,62375.34
2023-03-05T00:08:49.457Z,62368.14
2023-03-05T00:09:52.861Z,62355.00
2023-03-05T00:11:03.870Z,62345.09
2023-03-05T00:12:07.204Z,62345.09
2023-03-05T00:13:09.146Z,62356.21
2023-03-05T00:14:12.045Z,62352.42
2023-03-05T00:15:15.008Z,62362.04
2023-03-05T00:16:17.041Z,62361.10
2023-03-05T00:17:18.997Z,62357.84
2023-03-05T00:18:22.159Z,62345.50
2023-03-05T00:19:24.100Z,62332.36
2023-03-05T00:20:26.302Z,62349.70
2023-03-05T00:21:34.525Z,62350.11
2023-03-05T00:22:36.904Z,62350.11
2023-03-05T00:23:38.805Z,62339.94
2023-03-05T00:24:40.758Z,62337.78
2023-03-05T00:25:42.647Z,62341.18
2023-03-05T00:26:45.453Z,62342.12
2023-03-05T00:27:47.467Z,62332.36
2023-03-05T00:28:49.945Z,62337.78
2023-03-05T00:29:51.944Z,62341.57
2023-03-05T00:30:54.051Z,62320.29
2023-03-05T00:31:57.531Z,62323.69
2023-03-05T00:33:00.472Z,62322.07
2023-03-05T00:34:05.782Z,62335.88
2023-03-05T00:35:09.031Z,62334.11
2023-03-05T00:36:11.729Z,62337.78
2023-03-05T00:37:13.642Z,62327.33
2023-03-05T00:38:15.668Z,62309.58
2023-03-05T00:39:20.233Z,62318.93
2023-03-05T00:40:22.813Z,62329.52
2023-03-05T00:41:25.390Z,62328.57
2023-03-05T00:42:27.894Z,62316.23
2023-03-05T00:43:29.795Z,62327.89
2023-03-05T00:44:31.678Z,62325.85
2023-03-05T00:45:35.580Z,62324.76
2023-03-05T00:46:38.009Z,62326.94
2023-03-05T00:47:40.069Z,62327.89
2023-03-05T00:48:43.498Z,62323.69
2023-03-05T00:49:46.768Z,62327.75
2023-03-05T00:50:49.272Z,62329.10
2023-03-05T00:51:51.314Z,62323.00
2023-03-05T00:52:54.331Z,62334.93
2023-03-05T00:53:56.751Z,62332.36
2023-03-05T00:54:58.794Z,62325.85
2023-03-05T00:56:00.981Z,62319.08
2023-03-05T00:57:03.162Z,62296.59
2023-03-05T00:58:05.839Z,62316.50
2023-03-05T00:59:08.054Z,62317.71
2023-03-05T01:00:11.697Z,62303.89
2023-03-05T01:01:15.217Z,62296.71
2023-03-05T01:02:17.856Z,62298.34
2023-03-05T01:03:19.925Z,62281.41
2023-03-05T01:04:21.815Z,62272.19
2023-03-05T01:05:24.321Z,62283.16
2023-03-05T01:06:28.542Z,62288.99
2023-03-05T01:07:31.303Z,62291.71
2023-03-05T01:08:34.616Z,62289.67
2023-03-05T01:09:36.620Z,62299.69
2023-03-05T01:10:39.832Z,62287.62
2023-03-05T01:11:41.982Z,62296.44
2023-03-05T01:12:43.938Z,62298.75
2023-03-05T01:13:46.193Z,62294.40
2023-03-05T01:14:49.427Z,62296.29
2023-03-05T01:15:51.402Z,62278.43
2023-03-05T01:16:54.743Z,62292.78
2023-03-05T01:17:56.762Z,62269.49
2023-03-05T01:18:58.756Z,62280.32
2023-03-05T01:20:00.952Z,62285.73
2023-03-05T01:21:03.750Z,62291.30
2023-03-05T01:22:06.308Z,62292.24
2023-03-05T01:23:08.921Z,62296.97
2023-03-05T01:24:11.553Z,62285.05
2023-03-05T01:25:14.315Z,62269.49
2023-03-05T01:26:16.887Z,62267.60
2023-03-05T01:27:18.776Z,62281.80
2023-03-05T01:28:20.658Z,62276.00
2023-03-05T01:29:23.570Z,62278.16
2023-03-05T01:30:25.931Z,62252.29
2023-03-05T01:31:28.050Z,62272.33
2023-03-05T01:32:30.133Z,62265.83
2023-03-05T01:33:32.169Z,62273.81
2023-03-05T01:34:36.402Z,62271.24
2023-03-05T01:35:38.483Z,62266.92
2023-03-05T01:36:42.200Z,62258.25
2023-03-05T01:37:44.702Z,62264.61
2023-03-05T01:38:47.392Z,62267.31
2023-03-05T01:39:49.364Z,62244.84
2023-03-05T01:40:51.566Z,62262.30
2023-03-05T01:41:53.445Z,62266.51
2023-03-05T01:43:14.647Z,62272.19
2023-03-05T01:44:23.887Z,62270.30
2023-03-05T01:45:29.393Z,62257.57
2023-03-05T01:46:37.320Z,62252.14
2023-03-05T01:47:39.695Z,62254.32
2023-03-05T01:48:45.446Z,62248.50
2023-03-05T01:49:47.605Z,62248.50
2023-03-05T01:50:49.974Z,62259.32
2023-03-05T01:52:01.436Z,62268.55
2023-03-05T01:53:06.608Z,62273.28
2023-03-05T01:54:13.082Z,62271.65
2023-03-05T01:55:18.761Z,62268.40
2023-03-05T01:56:22.602Z,62273.81
2023-03-05T01:57:28.322Z,62268.67
2023-03-05T01:58:31.493Z,62261.89
2023-03-05T01:59:35.102Z,62262.45
2023-03-05T02:00:40.897Z,62252.82
2023-03-05T02:01:45.976Z,62261.89
2023-03-05T02:02:50.586Z,62261.62
2023-03-05T02:03:52.537Z,62262.45
2023-03-05T02:06:10.791Z,62251.88
2023-03-05T02:07:13.904Z,62243.35
2023-03-05T02:08:19.796Z,62251.07
2023-03-05T02:09:21.797Z,62248.35
2023-03-05T02:10:27.101Z,62221.80
2023-03-05T02:11:29.409Z,62238.47
2023-03-05T02:12:31.638Z,62248.23
2023-03-05T02:13:36.460Z,62247.14
2023-03-05T02:14:40.892Z,62251.75
2023-03-05T02:15:43.616Z,62239.15
2023-03-05T02:16:45.662Z,62239.15
2023-03-05T02:17:48.041Z,62217.08
2023-03-05T02:18:49.928Z,62232.24
2023-03-05T02:19:56.304Z,62226.15
2023-03-05T02:21:07.931Z,62239.15
2023-03-05T02:22:11.642Z,62229.40
2023-03-05T02:23:15.434Z,62239.69
2023-03-05T02:24:21.117Z,62243.48
2023-03-05T02:25:25.658Z,62240.52
2023-03-05T02:26:29.327Z,62240.22
2023-03-05T02:27:32.950Z,62231.56
2023-03-05T02:28:41.847Z,62213.83
2023-03-05T02:29:45.764Z,62219.24
2023-03-05T02:30:49.740Z,62236.31
2023-03-05T02:31:52.106Z,62232.92
2023-03-05T02:32:56.102Z,62214.23
2023-03-05T02:33:58.571Z,62233.45
2023-03-05T02:35:00.576Z,62226.00
2023-03-05T02:36:03.564Z,62225.06
2023-03-05T02:37:06.136Z,62235.90
2023-03-05T02:38:08.030Z,62240.10
2023-03-05T02:39:10.024Z,62234.28
2023-03-05T02:40:13.330Z,62220.73
2023-03-05T02:41:15.783Z,62215.18
2023-03-05T02:42:18.544Z,62215.32
2023-03-05T02:43:20.662Z,62192.16
2023-03-05T02:44:22.839Z,62208.82
2023-03-05T02:45:24.950Z,62221.27
2023-03-05T02:46:29.133Z,62222.89
2023-03-05T02:47:31.977Z,62221.95
2023-03-05T02:48:34.357Z,62228.86
2023-03-05T02:49:36.392Z,62229.40
2023-03-05T02:50:40.556Z,62220.73
2023-03-05T02:51:42.633Z,62218.02
2023-03-05T02:52:46.143Z,62228.45
2023-03-05T02:53:48.766Z,62230.08
2023-03-05T02:54:52.486Z,62235.49
2023-03-05T02:55:54.952Z,62230.08
2023-03-05T02:56:56.953Z,62225.06
2023-03-05T02:57:59.311Z,62239.01
2023-03-05T02:59:01.215Z,62229.93
2023-03-05T03:00:05.389Z,62234.68
2023-03-05T03:01:08.714Z,62228.86
2023-03-05T03:02:11.931Z,62226.98
2023-03-05T03:03:14.325Z,62226.68
2023-03-05T03:04:16.425Z,62231.56
2023-03-05T03:05:21.264Z,62218.17
2023-03-05T03:06:23.582Z,62226.83
2023-03-05T03:07:25.870Z,62222.89
2023-03-05T03:08:28.006Z,62225.06
2023-03-05T03:09:29.970Z,62233.18
2023-03-05T03:10:32.581Z,62230.49
2023-03-05T03:11:34.478Z,62239.54
2023-03-05T03:13:48.745Z,62226.15
2023-03-05T03:14:50.976Z,62221.80
2023-03-05T03:16:01.245Z,62228.60
2023-03-05T03:18:18.254Z,62228.45
2023-03-05T03:19:20.140Z,62226.15
2023-03-05T03:20:22.925Z,62228.04
2023-03-05T03:21:26.113Z,62227.24
2023-03-05T03:22:29.394Z,62217.21
2023-03-05T03:23:35.325Z,62221.80
2023-03-05T03:24:38.965Z,62217.89
2023-03-05T03:25:40.906Z,62222.89
2023-03-05T03:26:42.974Z,62215.32
2023-03-05T03:27:46.299Z,62223.99
2023-03-05T03:28:48.508Z,62227.62
2023-03-05T03:29:50.757Z,62209.89
2023-03-05T03:30:52.953Z,62220.20
2023-03-05T03:31:55.598Z,62215.59
2023-03-05T03:32:57.516Z,62215.32
2023-03-05T03:33:59.396Z,62221.80
2023-03-05T03:35:02.067Z,62226.83
2023-03-05T03:36:05.923Z,62228.31
2023-03-05T03:37:07.981Z,62225.46
2023-03-05T03:38:10.151Z,62228.86
2023-03-05T03:39:12.970Z,62233.74
2023-03-05T03:40:15.236Z,62228.31
2023-03-05T03:41:20.290Z,62234.28
2023-03-05T03:42:23.289Z,62219.64
2023-03-05T03:43:25.298Z,62220.73
2023-03-05T03:44:27.681Z,62231.30
2023-03-05T03:45:29.605Z,62211.66
2023-03-05T03:46:32.953Z,62228.99
2023-03-05T03:47:35.287Z,62228.99
2023-03-05T03:48:37.178Z,62238.06
2023-03-05T03:49:42.358Z,62238.60
2023-03-05T03:50:44.539Z,62224.67
2023-03-05T03:51:48.355Z,62230.76
2023-03-05T03:52:51.195Z,62242.40
2023-03-05T03:53:53.757Z,62233.74
2023-03-05T03:54:56.866Z,62212.35
2023-03-05T03:55:59.240Z,62232.24
2023-03-05T03:57:02.036Z,62235.37
2023-03-05T03:58:03.954Z,62244.98
2023-03-05T03:59:06.003Z,62236.44
2023-03-05T04:00:10.942Z,62232.11
2023-03-05T04:01:12.862Z,62241.31
2023-03-05T04:02:14.911Z,62216.39
2023-03-05T04:03:16.977Z,62233.18
2023-03-05T04:04:18.952Z,62225.06
2023-03-05T04:05:21.153Z,62238.06
2023-03-05T04:06:23.534Z,62238.89
2023-03-05T04:07:27.635Z,62246.19
2023-03-05T04:08:29.738Z,62245.66
2023-03-05T04:09:32.055Z,62258.78
2023-03-05T04:10:34.060Z,62251.20
2023-03-05T04:11:36.678Z,62251.20
2023-03-05T04:12:39.675Z,62259.05
2023-03-05T04:13:41.640Z,62257.96
2023-03-05T04:15:57.727Z,62270.03
2023-03-05T04:17:00.133Z,62263.11
2023-03-05T04:18:03.281Z,62243.09
2023-03-05T04:19:05.285Z,62263.39
2023-03-05T04:20:09.228Z,62260.00
2023-03-05T04:21:12.431Z,62250.66
2023-03-05T04:22:17.570Z,62268.25
2023-03-05T04:23:19.723Z,62261.48
2023-03-05T04:24:21.880Z,62263.52
2023-03-05T04:25:25.409Z,62274.76
2023-03-05T04:26:28.590Z,62257.28
2023-03-05T04:27:30.556Z,62257.02
2023-03-05T04:28:32.640Z,62261.21
2023-03-05T04:29:35.460Z,62260.42
2023-03-05T04:30:37.757Z,62266.63
2023-03-05T04:31:39.786Z,62267.60
2023-03-05T04:32:42.086Z,62279.79
2023-03-05T04:33:44.089Z,62276.53
2023-03-05T04:34:46.109Z,62266.51
2023-03-05T04:35:48.039Z,62271.24
2023-03-05T04:36:51.041Z,62272.75
2023-03-05T04:37:52.958Z,62280.32
2023-03-05T04:38:54.855Z,62267.05
2023-03-05T04:39:56.729Z,62271.65
2023-03-05T04:40:59.608Z,62263.79
2023-03-05T04:42:01.477Z,62273.28
2023-03-05T04:43:04.348Z,62281.95
2023-03-05T04:44:06.800Z,62281.41
2023-03-05T04:45:09.971Z,62283.57
2023-03-05T04:46:12.278Z,62286.42
2023-03-05T04:47:15.154Z,62289.54
2023-03-05T04:48:17.068Z,62266.77
2023-03-05T04:49:19.114Z,62283.57
2023-03-05T04:50:21.375Z,62273.28
2023-03-05T04:51:24.655Z,62284.79
2023-03-05T04:52:26.688Z,62289.93
2023-03-05T04:53:28.589Z,62281.00
2023-03-05T04:54:31.141Z,62273.28
2023-03-05T04:55:33.158Z,62283.16
2023-03-05T04:56:35.145Z,62291.02
2023-03-05T04:57:37.781Z,62284.52
2023-03-05T04:58:39.700Z,62286.29
2023-03-05T04:59:42.354Z,62281.95
2023-03-05T05:00:44.439Z,62291.82
2023-03-05T05:01:46.339Z,62278.84
2023-03-05T05:02:51.301Z,62270.71
2023-03-05T05:03:53.401Z,62267.31
2023-03-05T05:04:56.163Z,62266.63
2023-03-05T05:06:00.174Z,62271.65
2023-03-05T05:07:03.885Z,62271.24
2023-03-05T05:08:06.142Z,62276.00
2023-03-05T05:09:08.057Z,62276.00
2023-03-05T05:10:12.820Z,62285.05
2023-03-05T05:11:15.002Z,62275.71
2023-03-05T05:12:17.395Z,62284.25
2023-03-05T05:13:19.430Z,62282.63
2023-03-05T05:14:23.112Z,62291.15
2023-03-05T05:15:25.162Z,62289.40
2023-03-05T05:16:27.380Z,62286.29
2023-03-05T05:17:30.690Z,62277.07
2023-03-05T05:18:32.837Z,62277.34
2023-03-05T05:19:35.046Z,62288.99
2023-03-05T05:20:38.408Z,62280.86
2023-03-05T05:21:40.486Z,62285.88
2023-03-05T05:22:44.752Z,62283.98
2023-03-05T05:23:47.326Z,62283.04
2023-03-05T05:24:49.352Z,62297.39
2023-03-05T05:26:02.249Z,62297.66
2023-03-05T05:27:05.399Z,62269.49
2023-03-05T05:28:07.300Z,62283.31
2023-03-05T05:29:09.318Z,62276.00
2023-03-05T05:30:12.666Z,62289.81
2023-03-05T05:31:16.528Z,62296.97
2023-03-05T05:32:21.018Z,62302.00
2023-03-05T05:33:25.488Z,62295.50
2023-03-05T05:34:27.557Z,62295.50
2023-03-05T05:35:29.788Z,62297.95
2023-03-05T05:36:31.986Z,62267.31
2023-03-05T05:37:34.613Z,62265.68
2023-03-05T05:38:37.112Z,62282.48
2023-03-05T05:39:39.113Z,62275.59
2023-03-05T05:40:42.441Z,62285.34
2023-03-05T05:41:44.864Z,62293.46
2023-03-05T05:42:46.888Z,62304.43
2023-03-05T05:43:49.555Z,62300.23
2023-03-05T05:44:51.767Z,62278.43
2023-03-05T05:45:54.016Z,62291.15
2023-03-05T05:46:56.520Z,62306.33
2023-03-05T05:47:58.394Z,62298.07
2023-03-05T05:49:00.311Z,62282.77
2023-03-05T05:50:04.393Z,62251.07
2023-03-05T05:51:15.214Z,62277.07
2023-03-05T05:52:17.243Z,62279.91
2023-03-05T05:53:19.121Z,62284.66
2023-03-05T05:54:21.136Z,62282.89
2023-03-05T05:55:23.051Z,62265.83
2023-03-05T05:56:25.169Z,62250.12
2023-03-05T05:57:27.380Z,62260.95
2023-03-05T05:58:29.957Z,62280.32
2023-03-05T05:59:32.075Z,62275.44
2023-03-05T06:00:34.416Z,62268.67
2023-03-05T06:01:37.901Z,62282.48
2023-03-05T06:02:41.943Z,62273.81
2023-03-05T06:03:44.461Z,62278.84
2023-03-05T06:04:46.750Z,62270.17
2023-03-05T06:05:48.879Z,62284.11
2023-03-05T06:06:50.865Z,62271.65
2023-03-05T06:07:52.767Z,62291.02
2023-03-05T06:08:55.345Z,62293.33
2023-03-05T06:09:57.753Z,62286.68
2023-03-05T06:10:59.881Z,62280.32
2023-03-05T06:12:02.086Z,62293.87
2023-03-05T06:13:04.504Z,62292.92
2023-03-05T06:14:06.493Z,62309.58
2023-03-05T06:15:09.261Z,62319.87
2023-03-05T06:16:15.087Z,62316.36
2023-03-05T06:17:28.737Z,62292.24
2023-03-05T06:18:22.447Z,62292.11
2023-03-05T06:19:24.531Z,62305.25
2023-03-05T06:20:27.877Z,62282.09
2023-03-05T06:21:31.822Z,62291.83
2023-03-05T06:22:38.522Z,62312.45
2023-03-05T06:23:42.923Z,62292.92
2023-03-05T06:24:44.845Z,62307.95
2023-03-05T06:25:46.871Z,62306.33
2023-03-05T06:26:48.958Z,62326.68
2023-03-05T06:27:50.866Z,62313.65
2023-03-05T06:28:54.314Z,62322.06
2023-03-05T06:29:57.704Z,62351.87
2023-03-05T06:31:01.973Z,62354.44
2023-03-05T06:32:05.127Z,62331.27
2023-03-05T06:33:07.860Z,62355.54
2023-03-05T06:34:10.377Z,62369.36
2023-03-05T06:35:12.372Z,62369.23
2023-03-05T06:36:17.548Z,62375.73
2023-03-05T06:37:19.612Z,62331.95
2023-03-05T06:38:22.846Z,62371.40
2023-03-05T06:39:24.911Z,62403.94
2023-03-05T06:40:27.072Z,62387.27
2023-03-05T06:41:30.576Z,62410.46
2023-03-05T06:42:33.740Z,62392.95
2023-03-05T06:43:37.426Z,62386.18
2023-03-05T06:44:40.904Z,62407.88
2023-03-05T06:45:43.475Z,62418.60
2023-03-05T06:46:45.803Z,62403.67
2023-03-05T06:47:47.840Z,62435.42
2023-03-05T06:48:52.167Z,62457.79
2023-03-05T06:49:55.488Z,62470.41
2023-03-05T06:50:57.720Z,62473.95
2023-03-05T06:51:59.584Z,62471.78
2023-03-05T06:53:01.962Z,62510.48
2023-03-05T06:54:07.401Z,62473.41
2023-03-05T06:55:09.618Z,62422.66
2023-03-05T06:56:13.159Z,62473.14
2023-03-05T06:57:15.314Z,62487.52
2023-03-05T06:58:17.156Z,62526.22
2023-03-05T06:59:19.986Z,62557.18
2023-03-05T07:00:22.790Z,62556.64
2023-03-05T07:01:24.976Z,62553.92
2023-03-05T07:02:26.961Z,62553.92
2023-03-05T07:03:29.011Z,62579.61
2023-03-05T07:04:30.874Z,62569.13
2023-03-05T07:05:34.212Z,62603.25
2023-03-05T07:06:38.195Z,62575.50
2023-03-05T07:07:40.196Z,62579.87
2023-03-05T07:08:43.268Z,62568.04
2023-03-05T07:09:45.272Z,62582.18
2023-03-05T07:10:47.235Z,62605.68
2023-03-05T07:11:49.103Z,62557.86
2023-03-05T07:12:50.978Z,62545.37
2023-03-05T07:13:53.152Z,62526.90
2023-03-05T07:14:55.254Z,62532.60
2023-03-05T07:15:57.240Z,62544.02
2023-03-05T07:16:59.335Z,62553.80
2023-03-05T07:18:01.381Z,62583.40
2023-03-05T07:19:05.331Z,62509.24
2023-03-05T07:20:08.884Z,62571.86
2023-03-05T07:21:14.548Z,62589.66
2023-03-05T07:22:16.563Z,62534.09
2023-03-05T07:23:18.459Z,62523.38
2023-03-05T07:24:20.389Z,62525.54
2023-03-05T07:25:22.307Z,62498.80
2023-03-05T07:26:24.853Z,62533.28
2023-03-05T07:27:27.804Z,62509.24
2023-03-05T07:28:33.309Z,62557.60
2023-03-05T07:29:35.528Z,62560.03
2023-03-05T07:30:37.608Z,62580.67
2023-03-05T07:31:39.601Z,62580.67
2023-03-05T07:32:41.925Z,62582.18
2023-03-05T07:33:46.386Z,62597.80
2023-03-05T07:34:48.293Z,62617.10
2023-03-05T07:35:50.357Z,62631.23
2023-03-05T07:36:52.624Z,62654.47
2023-03-05T07:37:54.709Z,62631.64
2023-03-05T07:38:56.877Z,62631.23
2023-03-05T07:39:58.784Z,62591.02
2023-03-05T07:41:06.654Z,62626.07
2023-03-05T07:42:09.492Z,62647.29
2023-03-05T07:43:12.921Z,62597.80
2023-03-05T07:44:15.372Z,62571.86
2023-03-05T07:45:17.660Z,62624.44
2023-03-05T07:46:23.091Z,62593.18
2023-03-05T07:47:25.205Z,62611.53
2023-03-05T07:48:27.214Z,62605.14
2023-03-05T07:49:29.269Z,62634.37
2023-03-05T07:50:31.248Z,62594.55
2023-03-05T07:51:33.339Z,62590.87
2023-03-05T07:52:35.273Z,62619.01
2023-03-05T07:53:37.990Z,62652.30
2023-03-05T07:54:41.271Z,62666.18
2023-03-05T07:55:46.098Z,62583.81
2023-03-05T07:56:48.284Z,62582.72
2023-03-05T07:57:50.706Z,62586.52
2023-03-05T07:58:53.062Z,62558.81
2023-03-05T07:59:55.191Z,62530.16
2023-03-05T08:00:57.393Z,62519.70
2023-03-05T08:02:00.248Z,62552.70
2023-03-05T08:03:03.806Z,62574.30
2023-03-05T08:04:08.021Z,62566.82
2023-03-05T08:05:10.012Z,62582.72
2023-03-05T08:06:12.512Z,62605.95
2023-03-05T08:07:15.817Z,62531.65
2023-03-05T08:08:18.116Z,62528.80
2023-03-05T08:09:20.034Z,62540.34
2023-03-05T08:10:22.131Z,62553.80
2023-03-05T08:11:24.503Z,62571.59
2023-03-05T08:12:26.413Z,62587.47
2023-03-05T08:13:28.326Z,62586.40
2023-03-05T08:14:30.222Z,62590.87
2023-03-05T08:15:32.091Z,62584.49
2023-03-05T08:16:34.620Z,62583.81
2023-03-05T08:17:36.868Z,62546.45
2023-03-05T08:18:39.087Z,62586.12
2023-03-05T08:19:42.371Z,62572.39
2023-03-05T08:20:44.468Z,62572.39
2023-03-05T08:21:47.614Z,62585.30
2023-03-05T08:22:51.389Z,62601.20
2023-03-05T08:23:53.448Z,62585.45
2023-03-05T08:24:55.339Z,62595.21
2023-03-05T08:25:57.231Z,62571.18
2023-03-05T08:27:00.094Z,62521.19
2023-03-05T08:28:01.955Z,62524.72
2023-03-05T08:29:05.437Z,62572.39
2023-03-05T08:30:10.868Z,62602.69
2023-03-05T08:31:14.833Z,62602.57
2023-03-05T08:32:17.700Z,62633.14
2023-03-05T08:33:19.732Z,62582.04
2023-03-05T08:34:21.768Z,62576.61
2023-03-05T08:35:23.746Z,62615.74
2023-03-05T08:36:26.072Z,62640.76
2023-03-05T08:37:28.472Z,62637.75
2023-03-05T08:38:30.380Z,62660.61
2023-03-05T08:39:32.359Z,62664.68
2023-03-05T08:40:34.620Z,62626.89
2023-03-05T08:41:36.476Z,62639.25
2023-03-05T08:42:39.379Z,62651.89
2023-03-05T08:43:42.255Z,62650.81
2023-03-05T08:44:45.541Z,62675.55
2023-03-05T08:45:47.438Z,62623.90
2023-03-05T08:46:49.465Z,62607.73
2023-03-05T08:47:51.399Z,62591.68
2023-03-05T08:48:53.501Z,62622.53
2023-03-05T08:49:55.393Z,62573.61
2023-03-05T08:51:00.293Z,62571.86
2023-03-05T08:52:02.433Z,62597.26
2023-03-05T08:53:04.320Z,62615.74
2023-03-05T08:54:06.250Z,62594.14
2023-03-05T08:55:09.040Z,62633.96
2023-03-05T08:56:14.043Z,62641.44
2023-03-05T08:57:16.199Z,62613.30
2023-03-05T08:58:18.050Z,62578.38
2023-03-05T08:59:20.924Z,62600.52
2023-03-05T09:00:23.231Z,62609.77
2023-03-05T09:01:25.628Z,62627.70
2023-03-05T09:02:27.556Z,62625.65
2023-03-05T09:03:30.079Z,62645.38
2023-03-05T09:04:32.667Z,62651.09
2023-03-05T09:05:35.258Z,62641.83
2023-03-05T09:06:37.362Z,62647.55
2023-03-05T09:07:39.621Z,62672.29
2023-03-05T09:08:42.721Z,62657.06
2023-03-05T09:09:44.787Z,62633.81
2023-03-05T09:10:46.780Z,62638.43
2023-03-05T09:11:49.065Z,62646.19
2023-03-05T09:12:50.917Z,62633.14
2023-03-05T09:13:52.843Z,62631.23
2023-03-05T09:14:55.611Z,62594.68
2023-03-05T09:16:00.944Z,62619.80
2023-03-05T09:17:03.251Z,62632.74
2023-03-05T09:18:05.401Z,62615.21
2023-03-05T09:19:08.087Z,62640.48
2023-03-05T09:20:12.631Z,62655.98
2023-03-05T09:21:17.377Z,62616.84
2023-03-05T09:22:19.789Z,62635.59
2023-03-05T09:23:22.805Z,62596.04
2023-03-05T09:24:25.247Z,62589.92
2023-03-05T09:25:27.162Z,62634.91
2023-03-05T09:26:30.021Z,62650.14
2023-03-05T09:27:36.092Z,62652.30
2023-03-05T09:28:39.423Z,62640.34
2023-03-05T09:29:43.204Z,62633.96
2023-03-05T09:30:45.711Z,62637.22
2023-03-05T09:31:50.283Z,62593.18
2023-03-05T09:32:52.639Z,62574.03
2023-03-05T09:33:54.714Z,62579.60
2023-03-05T09:34:57.228Z,62593.60
2023-03-05T09:36:00.216Z,62601.20
2023-03-05T09:37:03.199Z,62597.12
2023-03-05T09:38:05.214Z,62616.15
2023-03-05T09:39:08.139Z,62621.44
2023-03-05T09:42:09.216Z,62641.97
2023-03-05T09:43:23.890Z,62666.58
2023-03-05T09:44:29.751Z,62675.82
2023-03-05T09:45:47.402Z,62686.70
2023-03-05T09:46:56.980Z,62691.05
2023-03-05T09:48:08.707Z,62709.01
2023-03-05T09:49:40.338Z,62651.62
2023-03-05T09:51:03.709Z,62668.62
2023-03-05T09:52:21.444Z,62672.01
2023-03-05T09:53:27.190Z,62623.63
2023-03-05T09:54:32.876Z,62638.43
2023-03-05T09:55:39.050Z,62668.48
2023-03-05T09:56:55.789Z,62663.59
2023-03-05T09:58:04.430Z,62627.84
2023-03-05T09:59:21.739Z,62625.26
2023-03-05T10:00:39.628Z,62674.74
2023-03-05T10:01:44.177Z,62702.75
2023-03-05T10:02:49.877Z,62652.72
2023-03-05T10:03:55.630Z,62675.70
2023-03-05T10:05:01.305Z,62687.92
2023-03-05T10:06:16.799Z,62704.95
2023-03-05T10:07:40.098Z,62686.03
2023-03-05T10:09:06.560Z,62691.46
2023-03-05T10:10:34.107Z,62710.64
2023-03-05T10:11:58.052Z,62689.71
2023-03-05T10:13:04.234Z,62727.37
2023-03-05T10:14:12.817Z,62697.58
2023-03-05T10:15:35.210Z,62697.32
2023-03-05T10:16:47.101Z,62657.74
2023-03-05T10:18:11.236Z,62666.86
2023-03-05T10:19:36.311Z,62693.77
2023-03-05T10:21:06.876Z,62709.01
2023-03-05T10:22:15.584Z,62704.27
2023-03-05T10:23:51.712Z,62706.70
2023-03-05T10:25:20.441Z,62672.01
2023-03-05T10:26:53.911Z,62657.62
2023-03-05T10:29:29.449Z,62674.74
2023-03-05T10:30:41.014Z,62657.88
2023-03-05T10:31:47.774Z,62686.17
2023-03-05T10:33:08.759Z,62689.71
2023-03-05T10:34:23.168Z,62692.98
2023-03-05T10:35:35.083Z,62677.74
2023-03-05T10:36:59.171Z,62706.44
2023-03-05T10:38:22.972Z,62698.00
2023-03-05T10:39:37.881Z,62712.27
2023-03-05T10:40:52.588Z,62717.59
2023-03-05T10:41:58.404Z,62717.17
2023-03-05T10:43:20.928Z,62732.41
2023-03-05T10:44:44.238Z,62706.28
2023-03-05T10:45:49.746Z,62720.98
2023-03-05T10:46:56.038Z,62729.96
2023-03-05T10:48:11.256Z,62701.94
2023-03-05T10:49:23.229Z,62720.04
2023-03-05T10:50:29.059Z,62706.02
2023-03-05T10:51:35.247Z,62695.82
2023-03-05T10:52:43.356Z,62697.18
2023-03-05T10:53:52.043Z,62698.53
2023-03-05T10:54:54.109Z,62701.94
2023-03-05T10:55:59.760Z,62694.05
2023-03-05T10:58:33.261Z,62682.76
2023-03-05T10:59:35.173Z,62685.61
2023-03-05T11:00:38.145Z,62680.99
2023-03-05T11:01:40.357Z,62656.52
2023-03-05T11:02:55.369Z,62664.95
2023-03-05T11:03:59.917Z,62654.47
2023-03-05T11:05:03.621Z,62662.91
2023-03-05T11:06:06.496Z,62646.87
2023-03-05T11:07:18.261Z,62638.17
2023-03-05T11:08:35.188Z,62658.16
2023-03-05T11:09:37.234Z,62666.04
2023-03-05T11:10:39.805Z,62695.27
2023-03-05T11:11:42.908Z,62696.36
2023-03-05T11:12:45.027Z,62691.05
2023-03-05T11:13:56.214Z,62669.16
2023-03-05T11:15:13.935Z,62685.61
2023-03-05T11:16:21.144Z,62664.80
2023-03-05T11:17:41.873Z,62685.35
2023-03-05T11:18:43.918Z,62686.16
2023-03-05T11:19:45.853Z,62692.14
2023-03-05T11:20:48.085Z,62672.96
2023-03-05T11:22:16.630Z,62703.01
2023-03-05T11:23:23.727Z,62693.91
2023-03-05T11:24:25.647Z,62717.99
2023-03-05T11:25:28.087Z,62725.46
2023-03-05T11:26:30.575Z,62743.71
2023-03-05T11:27:38.818Z,62743.84
2023-03-05T11:28:53.716Z,62756.10
2023-03-05T11:29:55.869Z,62732.41
2023-03-05T11:31:04.809Z,62753.51
2023-03-05T11:32:23.017Z,62757.73
2023-03-05T11:33:26.241Z,62754.05
2023-03-05T11:34:32.080Z,62748.19
2023-03-05T11:35:37.163Z,62749.56
2023-03-05T11:36:45.051Z,62735.68
2023-03-05T11:37:50.720Z,62743.57
2023-03-05T11:38:58.703Z,62743.57
2023-03-05T11:40:22.962Z,62743.17
2023-03-05T11:41:37.559Z,62728.33
2023-03-05T11:42:40.482Z,62740.44
2023-03-05T11:43:43.807Z,62747.39
2023-03-05T11:44:54.590Z,62747.39
2023-03-05T11:47:29.610Z,62738.80
2023-03-05T11:48:33.397Z,62732.69
2023-03-05T11:49:39.140Z,62726.97
2023-03-05T11:50:45.532Z,62741.66
2023-03-05T11:52:04.817Z,62748.73
2023-03-05T11:53:13.170Z,62750.92
2023-03-05T11:54:18.851Z,62741.12
2023-03-05T11:55:30.145Z,62742.21
2023-03-05T11:56:38.460Z,62720.84
2023-03-05T11:59:04.246Z,62730.64
2023-03-05T12:00:10.619Z,62743.57
2023-03-05T12:01:21.630Z,62736.36
2023-03-05T12:02:26.144Z,62726.97
2023-03-05T12:03:34.993Z,62699.49
2023-03-05T12:04:37.186Z,62702.36
2023-03-05T12:05:45.683Z,62703.16
2023-03-05T12:07:00.259Z,62720.18
2023-03-05T12:08:02.932Z,62726.70
2023-03-05T12:09:14.634Z,62725.88
2023-03-05T12:10:20.417Z,62715.40
2023-03-05T12:11:32.335Z,62680.71
2023-03-05T12:12:50.124Z,62695.82
2023-03-05T12:13:55.798Z,62708.61
2023-03-05T12:15:13.275Z,62717.71
2023-03-05T12:16:38.443Z,62717.71
2023-03-05T12:17:49.918Z,62676.37
2023-03-05T12:18:59.700Z,62666.44
2023-03-05T12:20:05.425Z,62703.85
2023-03-05T12:21:27.962Z,62716.91
2023-03-05T12:22:40.853Z,62719.34
2023-03-05T12:23:52.342Z,62730.64
2023-03-05T12:24:59.727Z,62733.48
2023-03-05T12:26:02.418Z,62712.27
2023-03-05T12:27:07.590Z,62717.71
2023-03-05T12:28:19.087Z,62727.25
2023-03-05T12:29:40.089Z,62727.93
2023-03-05T12:30:46.130Z,62711.86
2023-03-05T12:31:48.293Z,62693.77
2023-03-05T12:32:52.239Z,62718.67
2023-03-05T12:33:54.406Z,62730.78
2023-03-05T12:34:59.917Z,62744.66
2023-03-05T12:36:20.813Z,62731.59
2023-03-05T12:37:26.531Z,62744.80
2023-03-05T12:38:32.127Z,62736.21
2023-03-05T12:39:46.502Z,62746.83
2023-03-05T12:40:48.675Z,62732.41
2023-03-05T12:41:50.937Z,62737.17
2023-03-05T12:43:02.192Z,62736.75
2023-03-05T12:44:10.905Z,62741.12
2023-03-05T12:45:19.454Z,62724.11
2023-03-05T12:46:27.091Z,62732.95
2023-03-05T12:47:29.208Z,62730.52
2023-03-05T12:48:35.225Z,62719.23
2023-03-05T12:49:39.416Z,62722.61
2023-03-05T12:50:47.051Z,62712.14
2023-03-05T12:51:52.586Z,62717.85
2023-03-05T12:53:16.378Z,62723.43